createdAt,value
2023-04-21T00:00:09.393Z,0.00
2023-04-21T00:01:09.358Z,0.00
2023-04-21T00:02:09.405Z,0.00
2023-04-21T00:03:09.499Z,0.00
2023-04-21T00:04:09.395Z,0.00
2023-04-21T00:05:09.430Z,0.00
2023-04-21T00:06:09.302Z,0.00
2023-04-21T00:07:09.296Z,0.00
2023-04-21T00:08:09.278Z,0.00
2023-04-21T00:09:09.283Z,0.00
2023-04-21T00:10:09.291Z,0.00
2023-04-21T00:11:09.273Z,0.00
2023-04-21T00:12:09.230Z,0.00
2023-04-21T00:13:09.250Z,0.00
2023-04-21T00:14:09.213Z,0.00
2023-04-21T00:15:09.226Z,0.00
2023-04-21T00:16:09.240Z,0.00
2023-04-21T00:17:09.192Z,0.00
2023-04-21T00:18:09.202Z,0.00
2023-04-21T00:19:09.162Z,0.00
2023-04-21T00:20:09.175Z,0.00
2023-04-21T00:21:09.155Z,0.00
2023-04-21T00:22:09.123Z,0.00
2023-04-21T00:23:09.113Z,0.00
2023-04-21T00:24:09.109Z,0.00
2023-04-21T00:25:09.106Z,0.00
2023-04-21T00:26:09.121Z,0.00
2023-04-21T00:27:09.076Z,0.00
2023-04-21T00:28:09.065Z,0.00
2023-04-21T00:29:09.079Z,0.00
2023-04-21T00:30:09.035Z,0.00
2023-04-21T00:31:09.086Z,0.00
2023-04-21T00:32:09.026Z,0.00
2023-04-21T00:33:09.012Z,0.00
2023-04-21T00:34:09.002Z,0.00
2023-04-21T00:35:08.991Z,0.00
2023-04-21T00:36:08.985Z,0.00
2023-04-21T00:37:08.994Z,0.00
2023-04-21T00:38:08.958Z,0.00
2023-04-21T00:39:08.941Z,0.00
2023-04-21T00:40:08.939Z,0.00
2023-04-21T00:41:08.952Z,0.00
2023-04-21T00:42:08.956Z,0.00
2023-04-21T00:43:08.909Z,0.00
2023-04-21T00:44:08.908Z,0.00
2023-04-21T00:45:08.895Z,0.00
2023-04-21T00:46:08.874Z,0.00
2023-04-21T00:47:08.925Z,0.00
2023-04-21T00:48:08.925Z,0.00
2023-04-21T00:49:08.852Z,0.00
2023-04-21T00:50:08.825Z,0.00
2023-04-21T00:51:08.808Z,0.00
2023-04-21T00:52:08.820Z,0.00
2023-04-21T00:53:08.784Z,0.00
2023-04-21T00:54:08.777Z,0.00
2023-04-21T00:55:08.783Z,0.00
2023-04-21T00:56:08.756Z,0.00
2023-04-21T00:57:08.769Z,0.00
2023-04-21T00:58:08.726Z,0.00
2023-04-21T00:59:08.724Z,0.00
2023-04-21T01:00:08.706Z,0.00
2023-04-21T01:01:08.773Z,0.00
2023-04-21T01:02:08.790Z,0.00
2023-04-21T01:03:08.835Z,0.00
2023-04-21T01:04:08.915Z,0.00
2023-04-21T01:05:08.666Z,0.00
2023-04-21T01:06:08.640Z,0.00
2023-04-21T01:07:08.652Z,0.00
2023-04-21T01:08:08.642Z,0.00
2023-04-21T01:09:08.614Z,0.00
2023-04-21T01:10:08.599Z,0.00
2023-04-21T01:11:08.607Z,0.00
2023-04-21T01:12:08.583Z,0.00
2023-04-21T01:13:08.609Z,0.00
2023-04-21T01:14:08.557Z,0.00
2023-04-21T01:15:08.549Z,0.00
2023-04-21T01:16:08.558Z,0.00
2023-04-21T01:17:08.571Z,0.00
2023-04-21T01:18:08.679Z,0.00
2023-04-21T01:19:08.508Z,0.00
2023-04-21T01:20:08.491Z,0.00
2023-04-21T01:21:08.492Z,0.00
2023-04-21T01:22:08.473Z,0.00
2023-04-21T01:23:08.462Z,0.00
2023-04-21T01:24:08.508Z,0.00
2023-04-21T01:25:08.440Z,0.00
2023-04-21T01:26:08.425Z,0.00
2023-04-21T01:27:08.427Z,0.00
2023-04-21T01:28:08.405Z,0.00
2023-04-21T01:29:08.422Z,0.00
2023-04-21T01:30:08.381Z,0.00
2023-04-21T01:31:08.380Z,0.00
2023-04-21T01:32:08.424Z,0.00
2023-04-21T01:33:08.414Z,0.00
2023-04-21T01:34:08.367Z,0.00
2023-04-21T01:35:08.337Z,0.00
2023-04-21T01:36:08.316Z,0.00
2023-04-21T01:37:08.312Z,0.00
2023-04-21T01:38:08.315Z,0.00
2023-04-21T01:39:08.313Z,0.00
2023-04-21T01:40:08.287Z,0.00
2023-04-21T01:41:08.273Z,0.00
2023-04-21T01:42:08.284Z,0.00
2023-04-21T01:43:08.249Z,0.00
2023-04-21T01:44:08.259Z,0.00
2023-04-21T01:45:08.236Z,0.00
2023-04-21T01:46:08.264Z,0.00
2023-04-21T01:47:08.209Z,0.00
2023-04-21T01:48:08.229Z,0.00
2023-04-21T01:49:08.243Z,0.00
2023-04-21T01:50:08.210Z,0.00
2023-04-21T01:51:08.170Z,0.00
2023-04-21T01:52:08.156Z,0.00
2023-04-21T01:53:08.144Z,0.00
2023-04-21T01:54:08.152Z,0.00
2023-04-21T01:55:08.129Z,0.00
2023-04-21T01:56:08.102Z,0.00
2023-04-21T01:57:08.172Z,0.00
2023-04-21T01:58:08.089Z,0.00
2023-04-21T01:59:08.092Z,0.00
2023-04-21T02:00:08.078Z,0.00
2023-04-21T02:01:08.106Z,0.00
2023-04-21T02:02:08.216Z,0.00
2023-04-21T02:03:08.321Z,0.00
2023-04-21T02:04:08.247Z,0.00
2023-04-21T02:05:08.040Z,0.00
2023-04-21T02:06:08.004Z,0.00
2023-04-21T02:07:08.002Z,0.00
2023-04-21T02:08:07.985Z,0.00
2023-04-21T02:09:07.987Z,0.00
2023-04-21T02:10:07.989Z,0.00
2023-04-21T02:11:07.947Z,0.00
2023-04-21T02:12:07.937Z,0.00
2023-04-21T02:13:07.932Z,0.00
2023-04-21T02:14:07.924Z,0.00
2023-04-21T02:15:07.943Z,0.00
2023-04-21T02:16:13.966Z,0.00
2023-04-21T02:17:08.880Z,0.00
2023-04-21T02:18:07.959Z,0.00
2023-04-21T02:19:07.887Z,0.00
2023-04-21T02:20:07.877Z,0.00
2023-04-21T02:21:07.862Z,0.00
2023-04-21T02:22:07.827Z,0.00
2023-04-21T02:23:07.827Z,0.00
2023-04-21T02:24:07.802Z,0.00
2023-04-21T02:25:07.824Z,0.00
2023-04-21T02:26:07.783Z,0.00
2023-04-21T02:27:07.779Z,0.00
2023-04-21T02:28:07.764Z,0.00
2023-04-21T02:29:07.755Z,0.00
2023-04-21T02:30:07.778Z,0.00
2023-04-21T02:31:07.778Z,0.00
2023-04-21T02:33:07.735Z,0.00
2023-04-21T02:34:07.699Z,0.00
2023-04-21T02:35:07.720Z,0.00
2023-04-21T02:36:07.704Z,0.00
2023-04-21T02:37:07.708Z,0.00
2023-04-21T02:38:07.659Z,0.00
2023-04-21T02:39:07.660Z,0.00
2023-04-21T02:40:07.707Z,0.00
2023-04-21T02:41:07.658Z,0.00
2023-04-21T02:42:07.620Z,0.00
2023-04-21T02:43:07.600Z,0.00
2023-04-21T02:44:07.590Z,0.00
2023-04-21T02:45:07.581Z,0.00
2023-04-21T02:46:07.750Z,0.00
2023-04-21T02:47:07.586Z,0.00
2023-04-21T02:48:07.571Z,0.00
2023-04-21T02:49:07.543Z,0.00
2023-04-21T02:50:07.552Z,0.00
2023-04-21T02:51:07.515Z,0.00
2023-04-21T02:52:07.496Z,0.00
2023-04-21T02:53:07.656Z,0.00
2023-04-21T02:54:07.483Z,0.00
2023-04-21T02:55:07.500Z,0.00
2023-04-21T02:56:07.459Z,0.00
2023-04-21T02:57:07.478Z,0.00
2023-04-21T02:58:07.439Z,0.00
2023-04-21T02:59:07.436Z,0.00
2023-04-21T03:00:07.426Z,0.00
2023-04-21T03:01:07.445Z,0.00
2023-04-21T03:02:07.454Z,0.00
2023-04-21T03:03:07.438Z,0.00
2023-04-21T03:04:07.518Z,0.00
2023-04-21T03:05:07.367Z,0.00
2023-04-21T03:06:07.350Z,0.00
2023-04-21T03:07:07.371Z,0.00
2023-04-21T03:08:07.334Z,0.00
2023-04-21T03:09:07.341Z,0.00
2023-04-21T03:10:07.318Z,0.00
2023-04-21T03:11:07.349Z,0.00
2023-04-21T03:12:07.289Z,0.00
2023-04-21T03:13:07.278Z,0.00
2023-04-21T03:14:07.266Z,0.00
2023-04-21T03:15:07.258Z,0.00
2023-04-21T03:16:07.342Z,0.00
2023-04-21T03:17:07.237Z,0.00
2023-04-21T03:18:07.311Z,0.00
2023-04-21T03:19:07.257Z,0.00
2023-04-21T03:20:07.218Z,0.00
2023-04-21T03:21:07.202Z,0.00
2023-04-21T03:22:07.183Z,0.00
2023-04-21T03:23:07.194Z,0.00
2023-04-21T03:24:07.200Z,0.00
2023-04-21T03:25:07.375Z,0.00
2023-04-21T03:26:07.136Z,0.00
2023-04-21T03:27:07.960Z,0.00
2023-04-21T03:28:07.113Z,0.00
2023-04-21T03:29:07.136Z,0.00
2023-04-21T03:30:07.097Z,0.00
2023-04-21T03:31:07.099Z,0.00
2023-04-21T03:32:07.139Z,0.00
2023-04-21T03:33:07.119Z,0.00
2023-04-21T03:34:07.053Z,0.00
2023-04-21T03:35:07.061Z,0.00
2023-04-21T03:36:07.031Z,0.00
2023-04-21T03:37:07.025Z,0.00
2023-04-21T03:38:07.017Z,0.00
2023-04-21T03:39:19.249Z,0.00
2023-04-21T03:40:08.012Z,4.00
2023-04-21T03:41:07.005Z,4.00
2023-04-21T03:42:06.963Z,0.00
2023-04-21T03:43:06.950Z,0.00
2023-04-21T03:44:06.983Z,4.00
2023-04-21T03:45:06.933Z,4.00
2023-04-21T03:46:06.974Z,0.00
2023-04-21T03:47:06.945Z,4.00
2023-04-21T03:48:06.964Z,4.00
2023-04-21T03:49:06.892Z,4.00
2023-04-21T03:50:06.934Z,4.00
2023-04-21T03:51:06.897Z,4.00
2023-04-21T03:52:06.874Z,8.00
2023-04-21T03:53:06.843Z,4.00
2023-04-21T03:54:06.834Z,8.00
2023-04-21T03:55:06.849Z,4.00
2023-04-21T03:56:06.842Z,8.00
2023-04-21T03:57:06.830Z,12.00
2023-04-21T03:58:06.801Z,8.00
2023-04-21T03:59:06.798Z,12.00
2023-04-21T04:00:06.818Z,12.00
2023-04-21T04:01:06.792Z,12.00
2023-04-21T04:02:06.816Z,12.00
2023-04-21T04:03:06.849Z,16.00
2023-04-21T04:04:07.023Z,16.00
2023-04-21T04:05:06.749Z,16.00
2023-04-21T04:06:06.730Z,20.00
2023-04-21T04:07:06.694Z,20.00
2023-04-21T04:08:06.692Z,20.00
2023-04-21T04:09:06.680Z,20.00
2023-04-21T04:10:06.680Z,24.00
2023-04-21T04:11:06.679Z,24.00
2023-04-21T04:12:06.643Z,24.00
2023-04-21T04:13:06.650Z,28.00
2023-04-21T04:14:06.616Z,28.00
2023-04-21T04:15:06.606Z,32.00
2023-04-21T04:16:06.635Z,32.00
2023-04-21T04:17:06.592Z,32.00
2023-04-21T04:18:06.596Z,36.00
2023-04-21T04:19:06.563Z,40.00
2023-04-21T04:20:06.568Z,40.00
2023-04-21T04:21:06.563Z,44.00
2023-04-21T04:22:06.530Z,44.00
2023-04-21T04:23:06.516Z,44.00
2023-04-21T04:24:06.518Z,44.00
2023-04-21T04:25:06.493Z,44.00
2023-04-21T04:26:06.525Z,48.00
2023-04-21T04:27:06.499Z,52.00
2023-04-21T04:28:06.465Z,52.00
2023-04-21T04:29:06.470Z,52.00
2023-04-21T04:30:06.457Z,56.00
2023-04-21T04:31:06.459Z,60.00
2023-04-21T04:32:06.438Z,64.00
2023-04-21T04:33:06.424Z,64.00
2023-04-21T04:34:06.404Z,64.00
2023-04-21T04:35:06.386Z,68.00
2023-04-21T04:36:06.390Z,68.00
2023-04-21T04:37:06.416Z,68.00
2023-04-21T04:38:06.363Z,72.00
2023-04-21T04:39:07.722Z,76.00
2023-04-21T04:40:06.334Z,80.00
2023-04-21T04:41:06.354Z,80.00
2023-04-21T04:42:06.339Z,84.00
2023-04-21T04:43:06.301Z,84.00
2023-04-21T04:44:06.373Z,84.00
2023-04-21T04:45:06.296Z,88.00
2023-04-21T04:46:06.423Z,92.00
2023-04-21T04:47:06.480Z,92.00
2023-04-21T04:48:06.254Z,96.00
2023-04-21T04:49:06.231Z,96.00
2023-04-21T04:50:06.223Z,100.00
2023-04-21T04:51:06.205Z,104.00
2023-04-21T04:52:06.247Z,104.00
2023-04-21T04:53:06.184Z,108.00
2023-04-21T04:54:06.177Z,108.00
2023-04-21T04:55:06.172Z,108.00
2023-04-21T04:56:06.161Z,112.00
2023-04-21T04:57:06.200Z,116.00
2023-04-21T04:58:06.139Z,116.00
2023-04-21T04:59:06.126Z,120.00
2023-04-21T05:00:06.123Z,124.00
2023-04-21T05:01:06.122Z,124.00
2023-04-21T05:02:06.153Z,128.00
2023-04-21T05:03:06.270Z,128.00
2023-04-21T05:04:06.340Z,132.00
2023-04-21T05:05:06.163Z,132.00
2023-04-21T05:06:06.047Z,136.00
2023-04-21T05:07:06.068Z,140.00
2023-04-21T05:08:06.062Z,140.00
2023-04-21T05:09:06.038Z,140.00
2023-04-21T05:10:06.017Z,148.00
2023-04-21T05:11:05.988Z,148.00
2023-04-21T05:12:06.014Z,148.00
2023-04-21T05:13:05.970Z,156.00
2023-04-21T05:14:06.000Z,156.00
2023-04-21T05:15:05.949Z,160.00
2023-04-21T05:16:05.971Z,160.00
2023-04-21T05:17:06.012Z,164.00
2023-04-21T05:18:05.980Z,164.00
2023-04-21T05:19:06.005Z,168.00
2023-04-21T05:20:05.942Z,168.00
2023-04-21T05:21:05.992Z,172.00
2023-04-21T05:22:05.918Z,176.00
2023-04-21T05:23:05.865Z,180.00
2023-04-21T05:24:05.930Z,180.00
2023-04-21T05:25:05.840Z,184.00
2023-04-21T05:26:05.834Z,184.00
2023-04-21T05:27:05.845Z,188.00
2023-04-21T05:28:05.811Z,192.00
2023-04-21T05:29:05.795Z,196.00
2023-04-21T05:30:05.796Z,196.00
2023-04-21T05:31:05.809Z,200.00
2023-04-21T05:32:05.844Z,200.00
2023-04-21T05:33:05.823Z,204.00
2023-04-21T05:34:05.749Z,208.00
2023-04-21T05:35:05.760Z,208.00
2023-04-21T05:36:05.746Z,212.00
2023-04-21T05:37:05.708Z,212.00
2023-04-21T05:38:05.711Z,216.00
2023-04-21T05:39:05.685Z,220.00
2023-04-21T05:40:05.702Z,224.00
2023-04-21T05:41:05.671Z,224.00
2023-04-21T05:42:05.668Z,228.00
2023-04-21T05:43:05.664Z,228.00
2023-04-21T05:44:05.633Z,232.00
2023-04-21T05:45:05.621Z,232.00
2023-04-21T05:46:05.661Z,236.00
2023-04-21T05:47:05.601Z,240.00
2023-04-21T05:48:05.636Z,244.00
2023-04-21T05:49:05.599Z,244.00
2023-04-21T05:50:05.574Z,248.00
2023-04-21T05:51:05.587Z,252.00
2023-04-21T05:52:05.592Z,256.00
2023-04-21T05:53:05.534Z,256.00
2023-04-21T05:54:05.531Z,260.00
2023-04-21T05:55:05.512Z,260.00
2023-04-21T05:56:05.531Z,264.00
2023-04-21T05:57:05.492Z,268.00
2023-04-21T05:58:05.491Z,272.00
2023-04-21T05:59:05.469Z,276.00
2023-04-21T06:00:05.473Z,280.00
2023-04-21T06:01:05.482Z,280.00
2023-04-21T06:02:05.600Z,280.00
2023-04-21T06:03:05.603Z,288.00
2023-04-21T06:04:05.626Z,288.00
2023-04-21T06:05:05.667Z,292.00
2023-04-21T06:06:05.396Z,292.00
2023-04-21T06:07:05.385Z,296.00
2023-04-21T06:08:05.378Z,296.00
2023-04-21T06:09:05.368Z,300.00
2023-04-21T06:10:05.370Z,300.00
2023-04-21T06:11:05.357Z,304.00
2023-04-21T06:12:05.337Z,304.00
2023-04-21T06:13:05.343Z,300.00
2023-04-21T06:14:05.313Z,308.00
2023-04-21T06:15:05.297Z,304.00
2023-04-21T06:16:05.370Z,308.00
2023-04-21T06:17:05.277Z,312.00
2023-04-21T06:18:05.335Z,316.00
2023-04-21T06:19:05.255Z,320.00
2023-04-21T06:20:05.246Z,316.00
2023-04-21T06:21:05.277Z,316.00
2023-04-21T06:22:05.235Z,324.00
2023-04-21T06:23:05.245Z,328.00
2023-04-21T06:24:05.209Z,332.00
2023-04-21T06:25:05.193Z,332.00
2023-04-21T06:26:05.344Z,332.00
2023-04-21T06:27:05.172Z,332.00
2023-04-21T06:28:05.186Z,340.00
2023-04-21T06:29:05.161Z,340.00
2023-04-21T06:30:05.169Z,344.00
2023-04-21T06:31:07.989Z,344.00
2023-04-21T06:32:05.251Z,348.00
2023-04-21T06:33:05.171Z,356.00
2023-04-21T06:34:05.118Z,356.00
2023-04-21T06:35:05.090Z,364.00
2023-04-21T06:36:05.085Z,360.00
2023-04-21T06:37:05.126Z,364.00
2023-04-21T06:38:05.051Z,368.00
2023-04-21T06:39:05.037Z,372.00
2023-04-21T06:40:05.040Z,372.00
2023-04-21T06:41:05.046Z,376.00
2023-04-21T06:42:05.041Z,380.00
2023-04-21T06:43:04.999Z,380.00
2023-04-21T06:44:04.986Z,384.00
2023-04-21T06:45:05.036Z,388.00
2023-04-21T06:46:04.970Z,392.00
2023-04-21T06:47:04.997Z,392.00
2023-04-21T06:48:04.999Z,400.00
2023-04-21T06:49:04.941Z,400.00
2023-04-21T06:50:04.926Z,404.00
2023-04-21T06:51:04.904Z,408.00
2023-04-21T06:52:04.930Z,408.00
2023-04-21T06:53:04.933Z,416.00
2023-04-21T06:54:04.876Z,416.00
2023-04-21T06:55:05.075Z,420.00
2023-04-21T06:56:04.862Z,420.00
2023-04-21T06:57:04.867Z,424.00
2023-04-21T06:58:04.857Z,424.00
2023-04-21T06:59:04.817Z,424.00
2023-04-21T07:00:04.823Z,440.00
2023-04-21T07:01:04.847Z,436.00
2023-04-21T07:02:04.811Z,436.00
2023-04-21T07:03:04.954Z,440.00
2023-04-21T07:04:04.816Z,444.00
2023-04-21T07:05:04.751Z,448.00
2023-04-21T07:06:04.762Z,448.00
2023-04-21T07:07:04.742Z,456.00
2023-04-21T07:08:04.741Z,456.00
2023-04-21T07:09:04.747Z,460.00
2023-04-21T07:10:04.716Z,464.00
2023-04-21T07:11:04.720Z,464.00
2023-04-21T07:12:04.691Z,480.00
2023-04-21T07:13:04.691Z,468.00
2023-04-21T07:14:04.663Z,476.00
2023-04-21T07:15:04.683Z,484.00
2023-04-21T07:16:04.640Z,488.00
2023-04-21T07:17:04.756Z,492.00
2023-04-21T07:18:04.661Z,504.00
2023-04-21T07:19:04.598Z,508.00
2023-04-21T07:20:04.597Z,504.00
2023-04-21T07:21:04.594Z,508.00
2023-04-21T07:22:04.600Z,520.00
2023-04-21T07:23:04.578Z,524.00
2023-04-21T07:24:04.563Z,524.00
2023-04-21T07:25:04.558Z,536.00
2023-04-21T07:26:04.541Z,536.00
2023-04-21T07:27:04.552Z,540.00
2023-04-21T07:28:04.506Z,536.00
2023-04-21T07:29:04.493Z,544.00
2023-04-21T07:30:04.516Z,560.00
2023-04-21T07:31:04.618Z,564.00
2023-04-21T07:32:04.490Z,568.00
2023-04-21T07:33:04.529Z,576.00
2023-04-21T07:34:04.450Z,576.00
2023-04-21T07:35:04.454Z,576.00
2023-04-21T07:36:04.424Z,588.00
2023-04-21T07:37:04.411Z,600.00
2023-04-21T07:38:04.405Z,604.00
2023-04-21T07:39:04.386Z,608.00
2023-04-21T07:40:04.415Z,616.00
2023-04-21T07:41:04.389Z,620.00
2023-04-21T07:42:04.368Z,620.00
2023-04-21T07:43:04.340Z,640.00
2023-04-21T07:44:04.371Z,648.00
2023-04-21T07:45:04.355Z,656.00
2023-04-21T07:46:04.343Z,668.00
2023-04-21T07:47:04.292Z,668.00
2023-04-21T07:48:04.397Z,680.00
2023-04-21T07:49:04.357Z,692.00
2023-04-21T07:50:04.298Z,708.00
2023-04-21T07:51:04.256Z,716.00
2023-04-21T07:52:04.245Z,724.00
2023-04-21T07:53:04.249Z,744.00
2023-04-21T07:54:04.261Z,756.00
2023-04-21T07:55:04.211Z,768.00
2023-04-21T07:56:04.213Z,792.00
2023-04-21T07:57:04.262Z,812.00
2023-04-21T07:58:04.220Z,820.00
2023-04-21T07:59:04.169Z,812.00
2023-04-21T08:00:04.190Z,788.00
2023-04-21T08:01:04.148Z,824.00
2023-04-21T08:02:04.223Z,900.00
2023-04-21T08:03:04.168Z,880.00
2023-04-21T08:04:04.214Z,972.00
2023-04-21T08:05:04.295Z,1140.00
2023-04-21T08:06:04.339Z,1364.00
2023-04-21T08:07:04.172Z,1284.00
2023-04-21T08:08:04.103Z,1468.00
2023-04-21T08:09:04.065Z,1500.00
2023-04-21T08:10:04.073Z,1488.00
2023-04-21T08:11:04.280Z,1472.00
2023-04-21T08:12:04.030Z,1644.00
2023-04-21T08:13:04.062Z,1728.00
2023-04-21T08:14:04.022Z,1524.00
2023-04-21T08:15:04.032Z,2268.00
2023-04-21T08:16:03.997Z,11092.00
2023-04-21T08:17:04.015Z,14320.00
2023-04-21T08:18:05.072Z,15340.00
2023-04-21T08:19:03.951Z,14916.00
2023-04-21T08:20:03.972Z,14036.00
2023-04-21T08:21:03.931Z,12736.00
2023-04-21T08:22:03.921Z,9668.00
2023-04-21T08:23:03.949Z,3988.00
2023-04-21T08:24:03.898Z,6120.00
2023-04-21T08:25:03.909Z,2512.00
2023-04-21T08:26:03.873Z,1076.00
2023-04-21T08:27:03.866Z,1040.00
2023-04-21T08:28:03.883Z,2240.00
2023-04-21T08:29:04.629Z,2832.00
2023-04-21T08:30:03.825Z,6376.00
2023-04-21T08:31:03.929Z,13228.00
2023-04-21T08:32:03.975Z,6672.00
2023-04-21T08:33:03.842Z,5236.00
2023-04-21T08:34:03.781Z,2744.00
2023-04-21T08:35:03.803Z,4164.00
2023-04-21T08:36:09.829Z,2396.00
2023-04-21T08:37:04.845Z,3084.00
2023-04-21T08:38:03.737Z,3328.00
2023-04-21T08:39:03.822Z,4576.00
2023-04-21T08:40:03.724Z,6164.00
2023-04-21T08:41:03.722Z,6360.00
2023-04-21T08:42:03.700Z,7612.00
2023-04-21T08:43:03.697Z,2596.00
2023-04-21T08:44:03.705Z,5560.00
2023-04-21T08:45:03.711Z,3712.00
2023-04-21T08:46:03.679Z,4968.00
2023-04-21T08:47:03.651Z,16288.00
2023-04-21T08:48:03.694Z,9320.00
2023-04-21T08:49:03.633Z,1188.00
2023-04-21T08:50:03.609Z,1772.00
2023-04-21T08:51:03.611Z,14800.00
2023-04-21T08:52:03.604Z,14240.00
2023-04-21T08:53:03.614Z,9796.00
2023-04-21T08:54:03.574Z,7584.00
2023-04-21T08:55:03.566Z,19968.00
2023-04-21T08:56:11.415Z,26432.00
2023-04-21T08:57:14.144Z,40384.00
2023-04-21T08:58:04.551Z,13536.00
2023-04-21T08:59:03.568Z,33984.00
2023-04-21T09:00:04.866Z,30368.00
2023-04-21T09:01:03.666Z,15808.00
2023-04-21T09:02:03.578Z,21504.00
2023-04-21T09:03:05.568Z,17344.00
2023-04-21T09:04:04.624Z,7476.00
2023-04-21T09:05:03.876Z,3456.00
2023-04-21T09:06:03.830Z,2348.00
2023-04-21T09:07:03.438Z,1872.00
2023-04-21T09:08:03.425Z,7744.00
2023-04-21T09:09:03.414Z,5016.00
2023-04-21T09:10:03.473Z,8824.00
2023-04-21T09:11:03.418Z,2900.00
2023-04-21T09:12:03.382Z,1008.00
2023-04-21T09:13:03.373Z,1004.00
2023-04-21T09:14:03.353Z,1036.00
2023-04-21T09:15:03.376Z,1768.00
2023-04-21T09:16:04.272Z,2260.00
2023-04-21T09:17:03.418Z,5024.00
2023-04-21T09:18:03.350Z,3432.00
2023-04-21T09:19:03.299Z,1220.00
2023-04-21T09:20:03.293Z,1384.00
2023-04-21T09:21:03.312Z,1024.00
2023-04-21T09:22:03.285Z,1152.00
2023-04-21T09:23:03.259Z,1004.00
2023-04-21T09:24:03.255Z,1048.00
2023-04-21T09:25:03.245Z,1012.00
2023-04-21T09:26:03.230Z,1016.00
2023-04-21T09:27:03.235Z,1020.00
2023-04-21T09:28:03.202Z,1060.00
2023-04-21T09:29:03.200Z,1096.00
2023-04-21T09:30:03.196Z,1088.00
2023-04-21T09:31:03.200Z,1140.00
2023-04-21T09:32:03.189Z,2620.00
2023-04-21T09:33:08.321Z,4376.00
2023-04-21T09:34:04.223Z,4048.00
2023-04-21T09:35:03.129Z,1812.00
2023-04-21T09:36:03.148Z,2680.00
2023-04-21T09:37:03.160Z,1604.00
2023-04-21T09:38:03.097Z,2836.00
2023-04-21T09:39:30.059Z,1816.00
2023-04-21T09:40:05.385Z,1596.00
2023-04-21T09:41:03.068Z,5736.00
2023-04-21T09:42:03.089Z,1268.00
2023-04-21T09:43:03.044Z,1396.00
2023-04-21T09:44:03.041Z,1200.00
2023-04-21T09:45:25.474Z,1624.00
2023-04-21T09:46:04.044Z,2688.00
2023-04-21T09:47:03.031Z,8944.00
2023-04-21T09:48:03.042Z,5084.00
2023-04-21T09:49:03.013Z,1636.00
2023-04-21T09:50:02.982Z,6716.00
2023-04-21T09:51:25.509Z,5144.00
2023-04-21T09:52:17.123Z,4280.00
2023-04-21T09:53:03.943Z,6292.00
2023-04-21T09:54:02.919Z,12544.00
2023-04-21T09:55:02.922Z,5492.00
2023-04-21T09:56:02.906Z,736.00
2023-04-21T09:57:02.932Z,6384.00
2023-04-21T09:58:02.893Z,2348.00
2023-04-21T09:59:02.889Z,5224.00
2023-04-21T10:00:02.866Z,31456.00
2023-04-21T10:01:02.863Z,28832.00
2023-04-21T10:02:02.916Z,28288.00
2023-04-21T10:03:02.968Z,40224.00
2023-04-21T10:04:03.047Z,28864.00
2023-04-21T10:05:03.004Z,29536.00
2023-04-21T10:06:02.834Z,36288.00
2023-04-21T10:07:02.835Z,35040.00
2023-04-21T10:08:02.805Z,40608.00
2023-04-21T10:09:02.765Z,35776.00
2023-04-21T10:10:02.770Z,17440.00
2023-04-21T10:11:02.751Z,16000.00
2023-04-21T10:12:02.771Z,23136.00
2023-04-21T10:13:02.747Z,7788.00
2023-04-21T10:14:02.720Z,18144.00
2023-04-21T10:15:02.707Z,32288.00
2023-04-21T10:16:02.757Z,32096.00
2023-04-21T10:17:02.691Z,19520.00
2023-04-21T10:18:02.752Z,43968.00
2023-04-21T10:19:02.659Z,22400.00
2023-04-21T10:20:02.650Z,15936.00
2023-04-21T10:21:02.690Z,4032.00
2023-04-21T10:22:02.624Z,57472.00
2023-04-21T10:23:02.618Z,58784.00
2023-04-21T10:24:02.631Z,23808.00
2023-04-21T10:25:02.642Z,14592.00
2023-04-21T10:26:02.582Z,17600.00
2023-04-21T10:27:02.571Z,21504.00
2023-04-21T10:28:02.578Z,17376.00
2023-04-21T10:29:02.580Z,21376.00
2023-04-21T10:30:02.572Z,5580.00
2023-04-21T10:31:02.539Z,2056.00
2023-04-21T10:32:02.571Z,20224.00
2023-04-21T10:33:02.563Z,24512.00
2023-04-21T10:34:02.508Z,27072.00
2023-04-21T10:35:02.495Z,38656.00
2023-04-21T10:36:02.497Z,42016.00
2023-04-21T10:37:02.505Z,28768.00
2023-04-21T10:38:02.484Z,11204.00
2023-04-21T10:39:02.447Z,6216.00
2023-04-21T10:40:02.439Z,9064.00
2023-04-21T10:41:02.442Z,7936.00
2023-04-21T10:42:02.414Z,4016.00
2023-04-21T10:43:02.423Z,11940.00
2023-04-21T10:44:02.390Z,23872.00
2023-04-21T10:45:02.386Z,24352.00
2023-04-21T10:46:02.372Z,26144.00
2023-04-21T10:47:02.461Z,18912.00
2023-04-21T10:48:02.443Z,19616.00
2023-04-21T10:49:02.357Z,14476.00
2023-04-21T10:50:02.325Z,4308.00
2023-04-21T10:51:02.313Z,30720.00
2023-04-21T10:52:02.363Z,39104.00
2023-04-21T10:53:02.358Z,38848.00
2023-04-21T10:54:02.287Z,27424.00
2023-04-21T10:55:02.270Z,32960.00
2023-04-21T10:56:02.262Z,7536.00
2023-04-21T10:57:02.256Z,36864.00
2023-04-21T10:58:02.268Z,49824.00
2023-04-21T10:59:02.231Z,34304.00
2023-04-21T11:00:02.220Z,43616.00
2023-04-21T11:01:02.276Z,31840.00
2023-04-21T11:02:02.268Z,34368.00
2023-04-21T11:03:02.332Z,40960.00
2023-04-21T11:04:02.409Z,52800.00
2023-04-21T11:05:02.305Z,52160.00
2023-04-21T11:06:02.158Z,14952.00
2023-04-21T11:07:02.231Z,15264.00
2023-04-21T11:08:02.138Z,20320.00
2023-04-21T11:09:02.181Z,32704.00
2023-04-21T11:10:02.110Z,28448.00
2023-04-21T11:11:02.113Z,26560.00
2023-04-21T11:12:02.126Z,34432.00
2023-04-21T11:13:02.094Z,33120.00
2023-04-21T11:14:02.064Z,16412.00
2023-04-21T11:15:02.067Z,13104.00
2023-04-21T11:16:02.055Z,4908.00
2023-04-21T11:17:02.143Z,2200.00
2023-04-21T11:18:02.117Z,2200.00
2023-04-21T11:19:02.054Z,16256.00
2023-04-21T11:20:02.072Z,44352.00
2023-04-21T11:21:01.997Z,46240.00
2023-04-21T11:22:01.988Z,43392.00
2023-04-21T11:23:01.979Z,41664.00
2023-04-21T11:24:01.966Z,45248.00
2023-04-21T11:25:02.046Z,35712.00
2023-04-21T11:26:01.943Z,37248.00
2023-04-21T11:27:01.955Z,47744.00
2023-04-21T11:28:01.937Z,49376.00
2023-04-21T11:29:01.934Z,50080.00
2023-04-21T11:30:01.931Z,52224.00
2023-04-21T11:31:01.917Z,54048.00
2023-04-21T11:32:01.918Z,52896.00
2023-04-21T11:33:01.898Z,42848.00
2023-04-21T11:34:01.877Z,16416.00
2023-04-21T11:35:01.893Z,4172.00
2023-04-21T11:36:01.837Z,3364.00
2023-04-21T11:37:01.836Z,2936.00
2023-04-21T11:38:01.817Z,2696.00
2023-04-21T11:39:01.814Z,2592.00
2023-04-21T11:40:01.823Z,2400.00
2023-04-21T11:41:01.843Z,2280.00
2023-04-21T11:42:01.783Z,2160.00
2023-04-21T11:43:01.775Z,1912.00
2023-04-21T11:44:01.775Z,2172.00
2023-04-21T11:45:01.782Z,1908.00
2023-04-21T11:46:01.805Z,2148.00
2023-04-21T11:47:01.738Z,2104.00
2023-04-21T11:48:01.759Z,2052.00
2023-04-21T11:49:01.742Z,2144.00
2023-04-21T11:50:01.751Z,1852.00
2023-04-21T11:51:01.691Z,1856.00
2023-04-21T11:52:01.678Z,2132.00
2023-04-21T11:53:01.673Z,2116.00
2023-04-21T11:54:01.675Z,2072.00
2023-04-21T11:55:01.661Z,2072.00
2023-04-21T11:56:01.651Z,1872.00
2023-04-21T11:57:02.688Z,1668.00
2023-04-21T11:58:01.623Z,1816.00
2023-04-21T11:59:01.624Z,1808.00
2023-04-21T12:00:01.613Z,1768.00
2023-04-21T12:01:01.601Z,1564.00
2023-04-21T12:02:01.623Z,1864.00
2023-04-21T12:03:01.656Z,1600.00
2023-04-21T12:04:01.846Z,1560.00
2023-04-21T12:05:01.662Z,1604.00
2023-04-21T12:06:01.577Z,1632.00
2023-04-21T12:07:01.541Z,1496.00
2023-04-21T12:08:01.518Z,1484.00
2023-04-21T12:09:01.543Z,1596.00
2023-04-21T12:10:01.635Z,1532.00
2023-04-21T12:11:01.480Z,1328.00
2023-04-21T12:12:01.485Z,1252.00
2023-04-21T12:13:01.481Z,1484.00
2023-04-21T12:14:01.465Z,1576.00
2023-04-21T12:15:01.446Z,1620.00
2023-04-21T12:16:01.443Z,1840.00
2023-04-21T12:17:01.446Z,1560.00
2023-04-21T12:18:01.446Z,1520.00
2023-04-21T12:19:01.397Z,1332.00
2023-04-21T12:20:01.388Z,1476.00
2023-04-21T12:21:01.377Z,1256.00
2023-04-21T12:22:01.387Z,788.00
2023-04-21T12:23:01.348Z,712.00
2023-04-21T12:24:01.348Z,1224.00
2023-04-21T12:25:01.335Z,1172.00
2023-04-21T12:26:01.330Z,1180.00
2023-04-21T12:27:01.346Z,1168.00
2023-04-21T12:28:01.314Z,1288.00
2023-04-21T12:29:01.352Z,944.00
2023-04-21T12:30:01.286Z,1120.00
2023-04-21T12:31:01.271Z,1116.00
2023-04-21T12:32:01.350Z,1244.00
2023-04-21T12:33:01.407Z,1308.00
2023-04-21T12:34:01.265Z,1444.00